sensor_id;sensor_type;location;lat;lon;timestamp;pressure;altitude;pressure_sealevel;temperature;humidity
8318;BME280;4196;48.926;8.964;2023-03-23T00:02:34;98420.63;;;13.56;65.50
8318;BME280;4196;48.926;8.964;2023-03-23T00:05:20;98428.34;;;13.59;65.34
8318;BME280;4196;48.926;8.964;2023-03-23T00:08:06;98436.81;;;13.67;64.71
8318;BME280;4196;48.926;8.964;2023-03-23T00:10:52;98428.19;;;13.65;64.86
8318;BME280;4196;48.926;8.964;2023-03-23T00:13:42;98422.69;;;13.77;63.75
8318;BME280;4196;48.926;8.964;2023-03-23T00:16:31;98406.78;;;13.54;64.69
8318;BME280;4196;48.926;8.964;2023-03-23T00:19:17;98428.19;;;13.65;64.75
8318;BME280;4196;48.926;8.964;2023-03-23T00:22:06;98421.47;;;13.57;65.65
8318;BME280;4196;48.926;8.964;2023-03-23T00:24:52;98411.06;;;13.57;65.29
8318;BME280;4196;48.926;8.964;2023-03-23T00:27:37;98400.03;;;13.47;66.42
8318;BME280;4196;48.926;8.964;2023-03-23T00:30:23;98329.97;;;13.05;66.41
8318;BME280;4196;48.926;8.964;2023-03-23T00:33:08;98405.91;;;13.55;66.47
8318;BME280;4196;48.926;8.964;2023-03-23T00:35:59;98402.22;;;13.64;66.31
8318;BME280;4196;48.926;8.964;2023-03-23T00:38:44;98400.53;;;13.61;65.41
8318;BME280;4196;48.926;8.964;2023-03-23T00:41:32;98393.69;;;13.57;65.75
8318;BME280;4196;48.926;8.964;2023-03-23T00:44:19;98383.94;;;13.65;66.36
8318;BME280;4196;48.926;8.964;2023-03-23T00:47:08;98381.53;;;13.59;66.83
8318;BME280;4196;48.926;8.964;2023-03-23T00:49:56;98383.56;;;13.46;67.75
8318;BME280;4196;48.926;8.964;2023-03-23T00:52:42;98385.31;;;13.46;68.31
8318;BME280;4196;48.926;8.964;2023-03-23T00:55:27;98372.38;;;13.43;68.98
8318;BME280;4196;48.926;8.964;2023-03-23T00:58:13;98384.66;;;13.38;70.08
8318;BME280;4196;48.926;8.964;2023-03-23T01:00:59;98372.47;;;13.40;70.21
8318;BME280;4196;48.926;8.964;2023-03-23T01:03:44;98388.31;;;13.31;70.91
8318;BME280;4196;48.926;8.964;2023-03-23T01:06:32;98376.97;;;13.33;70.89
8318;BME280;4196;48.926;8.964;2023-03-23T01:09:21;98384.59;;;13.41;70.23
8318;BME280;4196;48.926;8.964;2023-03-23T01:12:07;98379.47;;;13.38;70.57
8318;BME280;4196;48.926;8.964;2023-03-23T01:14:52;98365.88;;;13.26;70.51
8318;BME280;4196;48.926;8.964;2023-03-23T01:17:37;98353.91;;;13.18;70.56
8318;BME280;4196;48.926;8.964;2023-03-23T01:20:24;98369.84;;;13.40;70.62
8318;BME280;4196;48.926;8.964;2023-03-23T01:23:09;98355.47;;;13.26;70.32
8318;BME280;4196;48.926;8.964;2023-03-23T01:25:54;98364.06;;;13.28;70.42
8318;BME280;4196;48.926;8.964;2023-03-23T01:28:43;98360.75;;;13.23;70.46
8318;BME280;4196;48.926;8.964;2023-03-23T01:31:29;98357.41;;;13.17;71.06
8318;BME280;4196;48.926;8.964;2023-03-23T01:34:15;98360.75;;;13.23;71.20
8318;BME280;4196;48.926;8.964;2023-03-23T01:37:01;98341.19;;;13.07;71.67
8318;BME280;4196;48.926;8.964;2023-03-23T01:39:46;98357.25;;;13.24;71.12
8318;BME280;4196;48.926;8.964;2023-03-23T01:42:34;98350.53;;;13.14;71.52
8318;BME280;4196;48.926;8.964;2023-03-23T01:45:26;98341.00;;;13.15;71.25
8318;BME280;4196;48.926;8.964;2023-03-23T01:48:17;98334.72;;;12.88;72.20
8318;BME280;4196;48.926;8.964;2023-03-23T01:51:14;98338.25;;;12.85;73.51
8318;BME280;4196;48.926;8.964;2023-03-23T01:54:04;98340.81;;;12.87;73.45
8318;BME280;4196;48.926;8.964;2023-03-23T01:56:55;98329.56;;;12.86;72.68
8318;BME280;4196;48.926;8.964;2023-03-23T01:59:47;98339.97;;;12.85;73.05
8318;BME280;4196;48.926;8.964;2023-03-23T02:02:42;98319.47;;;12.72;73.39
8318;BME280;4196;48.926;8.964;2023-03-23T02:05:33;98337.72;;;12.71;73.36
8318;BME280;4196;48.926;8.964;2023-03-23T02:08:27;98327.22;;;12.75;73.61
8318;BME280;4196;48.926;8.964;2023-03-23T02:11:15;98337.59;;;12.75;73.12
8318;BME280;4196;48.926;8.964;2023-03-23T02:14:01;98329.19;;;12.64;74.37
8318;BME280;4196;48.926;8.964;2023-03-23T02:16:59;98329.25;;;12.61;74.20
8318;BME280;4196;48.926;8.964;2023-03-23T02:20:09;98326.59;;;12.64;74.65
8318;BME280;4196;48.926;8.964;2023-03-23T02:23:19;98332.69;;;12.63;74.68
8318;BME280;4196;48.926;8.964;2023-03-23T02:32:16;98301.44;;;12.66;74.57
8318;BME280;4196;48.926;8.964;2023-03-23T02:38:18;98300.50;;;12.69;74.32
8318;BME280;4196;48.926;8.964;2023-03-23T02:41:06;98295.69;;;12.53;74.49
8318;BME280;4196;48.926;8.964;2023-03-23T02:43:54;98279.25;;;12.51;74.96
8318;BME280;4196;48.926;8.964;2023-03-23T02:46:42;98272.66;;;12.38;75.65
8318;BME280;4196;48.926;8.964;2023-03-23T02:49:31;98280.66;;;12.66;74.29
8318;BME280;4196;48.926;8.964;2023-03-23T02:52:21;98279.19;;;12.56;74.98
8318;BME280;4196;48.926;8.964;2023-03-23T02:55:09;98275.09;;;12.44;75.04
8318;BME280;4196;48.926;8.964;2023-03-23T02:57:57;98276.72;;;12.50;76.40
8318;BME280;4196;48.926;8.964;2023-03-23T03:00:42;98270.06;;;12.75;74.38
8318;BME280;4196;48.926;8.964;2023-03-23T03:03:29;98267.06;;;12.55;73.92
8318;BME280;4196;48.926;8.964;2023-03-23T03:09:19;98267.59;;;12.71;73.40
8318;BME280;4196;48.926;8.964;2023-03-23T03:12:14;98276.41;;;12.64;73.86
8318;BME280;4196;48.926;8.964;2023-03-23T03:15:17;98264.94;;;12.72;72.29
8318;BME280;4196;48.926;8.964;2023-03-23T03:18:12;98261.44;;;12.73;73.09
8318;BME280;4196;48.926;8.964;2023-03-23T03:21:04;98267.47;;;12.74;72.81
8318;BME280;4196;48.926;8.964;2023-03-23T03:23:56;98257.38;;;12.63;74.02
8318;BME280;4196;48.926;8.964;2023-03-23T03:26:47;98273.03;;;12.60;74.85
8318;BME280;4196;48.926;8.964;2023-03-23T03:29:54;98269.31;;;12.70;72.86
8318;BME280;4196;48.926;8.964;2023-03-23T03:32:48;98255.81;;;12.54;72.96
8318;BME280;4196;48.926;8.964;2023-03-23T03:35:37;98258.59;;;12.48;73.95
8318;BME280;4196;48.926;8.964;2023-03-23T03:38:26;98263.56;;;12.57;72.80
8318;BME280;4196;48.926;8.964;2023-03-23T03:41:13;98265.00;;;12.69;73.14
8318;BME280;4196;48.926;8.964;2023-03-23T03:43:58;98252.91;;;12.68;72.51
8318;BME280;4196;48.926;8.964;2023-03-23T03:46:43;98237.63;;;12.56;73.24
8318;BME280;4196;48.926;8.964;2023-03-23T03:49:30;98260.03;;;12.60;72.85
8318;BME280;4196;48.926;8.964;2023-03-23T03:52:15;98271.81;;;12.73;72.55
8318;BME280;4196;48.926;8.964;2023-03-23T03:55:02;98248.03;;;12.56;73.01
8318;BME280;4196;48.926;8.964;2023-03-23T03:57:50;98266.56;;;12.76;73.56
8318;BME280;4196;48.926;8.964;2023-03-23T04:01:03;98261.75;;;12.61;74.12
8318;BME280;4196;48.926;8.964;2023-03-23T04:03:53;98258.09;;;12.68;74.36
8318;BME280;4196;48.926;8.964;2023-03-23T04:06:48;98268.63;;;12.64;76.37
8318;BME280;4196;48.926;8.964;2023-03-23T04:09:34;98266.22;;;12.54;76.09
8318;BME280;4196;48.926;8.964;2023-03-23T04:12:22;98273.56;;;12.74;75.20
8318;BME280;4196;48.926;8.964;2023-03-23T04:15:13;98261.97;;;12.52;75.94
8318;BME280;4196;48.926;8.964;2023-03-23T04:18:00;98268.69;;;12.59;76.67
8318;BME280;4196;48.926;8.964;2023-03-23T04:20:48;98272.06;;;12.64;76.34
8318;BME280;4196;48.926;8.964;2023-03-23T04:23:36;98268.59;;;12.99;73.94
8318;BME280;4196;48.926;8.964;2023-03-23T04:26:22;98255.13;;;12.84;75.24
8318;BME280;4196;48.926;8.964;2023-03-23T04:29:10;98252.97;;;13.01;74.56
8318;BME280;4196;48.926;8.964;2023-03-23T04:32:20;98243.69;;;12.91;74.81
8318;BME280;4196;48.926;8.964;2023-03-23T04:35:12;98259.06;;;13.00;75.09
8318;BME280;4196;48.926;8.964;2023-03-23T04:38:08;98252.16;;;12.99;74.46
8318;BME280;4196;48.926;8.964;2023-03-23T04:40:55;98260.78;;;13.01;73.81
8318;BME280;4196;48.926;8.964;2023-03-23T04:43:54;98264.22;;;13.01;74.57
8318;BME280;4196;48.926;8.964;2023-03-23T04:46:52;98271.03;;;13.07;73.85
8318;BME280;4196;48.926;8.964;2023-03-23T04:49:40;98276.28;;;13.04;73.78
8318;BME280;4196;48.926;8.964;2023-03-23T04:52:36;98266.19;;;12.92;74.42
8318;BME280;4196;48.926;8.964;2023-03-23T04:55:24;98264.94;;;13.06;73.77
8318;BME280;4196;48.926;8.964;2023-03-23T04:58:16;98264.28;;;13.00;73.67
8318;BME280;4196;48.926;8.964;2023-03-23T05:01:19;98265.97;;;13.01;73.76
8318;BME280;4196;48.926;8.964;2023-03-23T05:04:15;98258.56;;;12.86;74.14
8318;BME280;4196;48.926;8.964;2023-03-23T05:07:04;98262.53;;;12.99;74.40
8318;BME280;4196;48.926;8.964;2023-03-23T05:09:56;98267.81;;;12.96;73.42
8318;BME280;4196;48.926;8.964;2023-03-23T05:12:46;98265.06;;;13.02;74.21
8318;BME280;4196;48.926;8.964;2023-03-23T05:15:31;98266.03;;;12.98;74.36
8318;BME280;4196;48.926;8.964;2023-03-23T05:18:18;98274.75;;;12.97;74.42
8318;BME280;4196;48.926;8.964;2023-03-23T05:21:05;98279.63;;;13.09;73.10
8318;BME280;4196;48.926;8.964;2023-03-23T05:23:55;98277.78;;;13.13;73.10
8318;BME280;4196;48.926;8.964;2023-03-23T05:26:41;98278.13;;;12.99;73.54
8318;BME280;4196;48.926;8.964;2023-03-23T05:29:35;98271.75;;;13.11;72.56
8318;BME280;4196;48.926;8.964;2023-03-23T05:32:21;98272.78;;;13.05;72.49
8318;BME280;4196;48.926;8.964;2023-03-23T05:35:14;98267.66;;;13.02;74.04
8318;BME280;4196;48.926;8.964;2023-03-23T05:38:01;98262.00;;;12.86;73.53
8318;BME280;4196;48.926;8.964;2023-03-23T05:40:48;98260.69;;;13.04;72.81
8318;BME280;4196;48.926;8.964;2023-03-23T05:43:36;98246.38;;;12.88;73.51
8318;BME280;4196;48.926;8.964;2023-03-23T05:46:31;98273.63;;;13.05;73.69
8318;BME280;4196;48.926;8.964;2023-03-23T05:49:18;98267.81;;;12.96;73.31
8318;BME280;4196;48.926;8.964;2023-03-23T05:52:06;98291.06;;;13.02;74.04
8318;BME280;4196;48.926;8.964;2023-03-23T05:54:53;98293.59;;;13.05;74.79
8318;BME280;4196;48.926;8.964;2023-03-23T05:57:40;98295.53;;;12.97;74.69
8318;BME280;4196;48.926;8.964;2023-03-23T06:00:36;98302.22;;;13.07;74.00
8318;BME280;4196;48.926;8.964;2023-03-23T06:03:35;98297.38;;;12.92;75.11
8318;BME280;4196;48.926;8.964;2023-03-23T06:06:30;98301.31;;;13.08;75.37
8318;BME280;4196;48.926;8.964;2023-03-23T06:09:25;98312.38;;;13.16;73.92
8318;BME280;4196;48.926;8.964;2023-03-23T06:12:23;98313.22;;;13.17;73.53
8318;BME280;4196;48.926;8.964;2023-03-23T06:15:35;98338.50;;;13.10;74.88
8318;BME280;4196;48.926;8.964;2023-03-23T06:18:33;98335.91;;;13.10;74.79
8318;BME280;4196;48.926;8.964;2023-03-23T06:21:39;98341.19;;;13.07;74.77
8318;BME280;4196;48.926;8.964;2023-03-23T06:24:32;98346.22;;;13.15;77.24
8318;BME280;4196;48.926;8.964;2023-03-23T06:27:20;98338.44;;;13.13;76.22
8318;BME280;4196;48.926;8.964;2023-03-23T06:30:06;98350.19;;;13.29;77.24
8318;BME280;4196;48.926;8.964;2023-03-23T06:32:53;98352.25;;;13.15;77.32
8318;BME280;4196;48.926;8.964;2023-03-23T06:35:52;98357.81;;;13.00;78.31
8318;BME280;4196;48.926;8.964;2023-03-23T06:38:59;98357.97;;;12.92;79.11
8318;BME280;4196;48.926;8.964;2023-03-23T06:41:57;98357.66;;;13.06;77.70
8318;BME280;4196;48.926;8.964;2023-03-23T06:44:44;98353.88;;;13.19;78.02
8318;BME280;4196;48.926;8.964;2023-03-23T06:47:31;98352.19;;;13.18;78.55
8318;BME280;4196;48.926;8.964;2023-03-23T06:50:17;98356.50;;;13.18;80.51
8318;BME280;4196;48.926;8.964;2023-03-23T06:53:02;98348.47;;;13.28;82.29
8318;BME280;4196;48.926;8.964;2023-03-23T06:55:48;98354.66;;;13.23;81.72
8318;BME280;4196;48.926;8.964;2023-03-23T06:58:34;98356.34;;;13.25;81.97
8318;BME280;4196;48.926;8.964;2023-03-23T07:01:20;98363.97;;;13.33;82.11
8318;BME280;4196;48.926;8.964;2023-03-23T07:04:15;98347.69;;;13.26;83.67
8318;BME280;4196;48.926;8.964;2023-03-23T07:07:24;98371.59;;;13.39;80.36
8318;BME280;4196;48.926;8.964;2023-03-23T07:10:28;98386.16;;;13.48;80.45
8318;BME280;4196;48.926;8.964;2023-03-23T07:13:17;98376.22;;;13.28;83.78
8318;BME280;4196;48.926;8.964;2023-03-23T07:16:09;98388.56;;;13.18;83.14
8318;BME280;4196;48.926;8.964;2023-03-23T07:18:56;98395.88;;;13.40;82.70
8318;BME280;4196;48.926;8.964;2023-03-23T07:21:41;98410.53;;;13.42;81.83
8318;BME280;4196;48.926;8.964;2023-03-23T07:24:27;98409.69;;;13.42;83.44
8318;BME280;4196;48.926;8.964;2023-03-23T07:27:27;98428.19;;;13.65;80.29
8318;BME280;4196;48.926;8.964;2023-03-23T07:30:16;98435.97;;;13.65;81.09
8318;BME280;4196;48.926;8.964;2023-03-23T07:33:05;98442.53;;;13.82;79.42
8318;BME280;4196;48.926;8.964;2023-03-23T07:35:51;98432.50;;;13.99;78.83
8318;BME280;4196;48.926;8.964;2023-03-23T07:38:38;98437.19;;;14.19;78.36
8318;BME280;4196;48.926;8.964;2023-03-23T07:41:23;98437.53;;;14.38;78.52
8318;BME280;4196;48.926;8.964;2023-03-23T07:44:10;98427.44;;;14.58;77.39
8318;BME280;4196;48.926;8.964;2023-03-23T07:46:56;98430.59;;;14.69;76.55
8318;BME280;4196;48.926;8.964;2023-03-23T07:49:51;98433.75;;;14.79;76.46
8318;BME280;4196;48.926;8.964;2023-03-23T07:52:45;98425.63;;;14.90;76.43
8318;BME280;4196;48.926;8.964;2023-03-23T07:55:32;98441.63;;;15.07;75.73
8318;BME280;4196;48.926;8.964;2023-03-23T07:58:22;98454.47;;;15.13;76.01
8318;BME280;4196;48.926;8.964;2023-03-23T08:01:13;98455.22;;;15.17;76.70
8318;BME280;4196;48.926;8.964;2023-03-23T08:04:07;98445.75;;;15.14;76.41
8318;BME280;4196;48.926;8.964;2023-03-23T08:07:15;98457.34;;;15.04;77.82
8318;BME280;4196;48.926;8.964;2023-03-23T08:10:22;98454.84;;;15.01;77.73
8318;BME280;4196;48.926;8.964;2023-03-23T08:13:19;98449.59;;;15.03;78.56
8318;BME280;4196;48.926;8.964;2023-03-23T08:16:32;98454.91;;;14.98;79.17
8318;BME280;4196;48.926;8.964;2023-03-23T08:19:29;98457.28;;;15.06;80.42
8318;BME280;4196;48.926;8.964;2023-03-23T08:22:44;98466.97;;;15.02;79.24
8318;BME280;4196;48.926;8.964;2023-03-23T08:25:59;98458.59;;;14.91;79.72
8318;BME280;4196;48.926;8.964;2023-03-23T08:29:10;98448.91;;;14.66;81.03
8318;BME280;4196;48.926;8.964;2023-03-23T08:32:12;98453.59;;;14.55;82.14
8318;BME280;4196;48.926;8.964;2023-03-23T08:35:09;98462.47;;;14.46;82.56
8318;BME280;4196;48.926;8.964;2023-03-23T08:38:14;98459.44;;;14.31;84.02
8318;BME280;4196;48.926;8.964;2023-03-23T08:41:20;98462.31;;;14.20;84.21
8318;BME280;4196;48.926;8.964;2023-03-23T08:44:15;98442.91;;;13.99;85.46
8318;BME280;4196;48.926;8.964;2023-03-23T08:47:18;98467.66;;;14.15;85.68
8318;BME280;4196;48.926;8.964;2023-03-23T08:50:29;98470.28;;;14.15;86.48
8318;BME280;4196;48.926;8.964;2023-03-23T08:53:36;98474.56;;;14.16;85.94
8318;BME280;4196;48.926;8.964;2023-03-23T08:56:42;98473.66;;;14.17;86.31
8318;BME280;4196;48.926;8.964;2023-03-23T08:59:46;98469.00;;;14.30;85.23
8318;BME280;4196;48.926;8.964;2023-03-23T09:02:37;98466.25;;;14.35;84.73
8318;BME280;4196;48.926;8.964;2023-03-23T09:05:33;98465.47;;;14.33;85.45
8318;BME280;4196;48.926;8.964;2023-03-23T09:08:45;98454.91;;;14.37;83.64
8318;BME280;4196;48.926;8.964;2023-03-23T09:11:30;98478.91;;;14.50;80.34
8318;BME280;4196;48.926;8.964;2023-03-23T09:14:16;98484.03;;;14.53;81.73
8318;BME280;4196;48.926;8.964;2023-03-23T09:17:02;98488.44;;;14.51;82.96
8318;BME280;4196;48.926;8.964;2023-03-23T09:19:48;98503.44;;;14.74;83.50
8318;BME280;4196;48.926;8.964;2023-03-23T09:22:33;98504.56;;;14.64;85.41
8318;BME280;4196;48.926;8.964;2023-03-23T09:25:21;98513.72;;;14.46;88.84
8318;BME280;4196;48.926;8.964;2023-03-23T09:28:07;98531.44;;;14.33;91.17
8318;BME280;4196;48.926;8.964;2023-03-23T09:30:55;98534.75;;;14.40;93.29
8318;BME280;4196;48.926;8.964;2023-03-23T09:33:42;98526.47;;;14.57;93.63
8318;BME280;4196;48.926;8.964;2023-03-23T09:36:29;98498.72;;;14.56;89.33
8318;BME280;4196;48.926;8.964;2023-03-23T09:39:16;98521.16;;;14.91;87.40
8318;BME280;4196;48.926;8.964;2023-03-23T09:42:46;98518.56;;;14.91;86.85
8318;BME280;4196;48.926;8.964;2023-03-23T09:45:46;98524.97;;;15.10;87.30
8318;BME280;4196;48.926;8.964;2023-03-23T09:57:47;98540.31;;;15.49;84.33
8318;BME280;4196;48.926;8.964;2023-03-23T10:00:41;98539.00;;;15.36;85.41
8318;BME280;4196;48.926;8.964;2023-03-23T10:04:02;98549.13;;;15.45;85.76
8318;BME280;4196;48.926;8.964;2023-03-23T10:06:49;98533.56;;;15.42;86.18
8318;BME280;4196;48.926;8.964;2023-03-23T10:09:36;98551.22;;;15.62;85.85
8318;BME280;4196;48.926;8.964;2023-03-23T10:15:33;98538.09;;;15.37;88.49
8318;BME280;4196;48.926;8.964;2023-03-23T10:18:43;98543.53;;;15.29;89.41
8318;BME280;4196;48.926;8.964;2023-03-23T10:21:29;98539.59;;;15.44;89.29
8318;BME280;4196;48.926;8.964;2023-03-23T10:24:20;98545.84;;;15.38;89.24
8318;BME280;4196;48.926;8.964;2023-03-23T10:27:19;98553.41;;;15.76;88.47
8318;BME280;4196;48.926;8.964;2023-03-23T10:33:16;98550.09;;;15.99;85.96
8318;BME280;4196;48.926;8.964;2023-03-23T10:36:11;98550.75;;;16.30;83.84
8318;BME280;4196;48.926;8.964;2023-03-23T10:39:09;98544.03;;;16.23;82.07
8318;BME280;4196;48.926;8.964;2023-03-23T10:41:56;98547.47;;;16.50;81.77
8318;BME280;4196;48.926;8.964;2023-03-23T10:44:48;98547.25;;;16.81;81.57
8318;BME280;4196;48.926;8.964;2023-03-23T10:47:36;98541.81;;;16.87;77.96
8318;BME280;4196;48.926;8.964;2023-03-23T10:50:27;98529.94;;;17.02;77.66
8318;BME280;4196;48.926;8.964;2023-03-23T10:53:33;98508.53;;;17.14;78.38
8318;BME280;4196;48.926;8.964;2023-03-23T10:56:29;98539.03;;;16.92;77.43
8318;BME280;4196;48.926;8.964;2023-03-23T10:59:28;98519.75;;;16.46;77.07
8318;BME280;4196;48.926;8.964;2023-03-23T11:02:17;98536.38;;;16.43;78.91
8318;BME280;4196;48.926;8.964;2023-03-23T11:05:15;98514.34;;;16.26;79.85
8318;BME280;4196;48.926;8.964;2023-03-23T11:08:01;98538.06;;;16.45;80.05
8318;BME280;4196;48.926;8.964;2023-03-23T11:11:17;98538.81;;;16.23;78.22
8318;BME280;4196;48.926;8.964;2023-03-23T11:14:18;98535.31;;;16.24;79.56
8318;BME280;4196;48.926;8.964;2023-03-23T11:17:18;98526.19;;;16.36;80.24
8318;BME280;4196;48.926;8.964;2023-03-23T11:20:12;98529.41;;;16.67;80.27
8318;BME280;4196;48.926;8.964;2023-03-23T11:22:58;98528.47;;;16.95;77.01
8318;BME280;4196;48.926;8.964;2023-03-23T11:26:23;98480.31;;;16.77;75.74
8318;BME280;4196;48.926;8.964;2023-03-23T11:29:13;98527.31;;;16.79;77.21
8318;BME280;4196;48.926;8.964;2023-03-23T11:34:48;98531.75;;;17.00;75.89
8318;BME280;4196;48.926;8.964;2023-03-23T11:37:40;98526.53;;;17.24;74.46
8318;BME280;4196;48.926;8.964;2023-03-23T11:40:30;98531.19;;;17.37;72.83
8318;BME280;4196;48.926;8.964;2023-03-23T11:43:24;98494.94;;;17.50;73.19
8318;BME280;4196;48.926;8.964;2023-03-23T11:46:12;98528.47;;;17.86;73.81
8318;BME280;4196;48.926;8.964;2023-03-23T11:49:05;98536.84;;;17.50;72.73
8318;BME280;4196;48.926;8.964;2023-03-23T11:52:01;98540.09;;;17.33;72.44
8318;BME280;4196;48.926;8.964;2023-03-23T11:54:58;98541.44;;;16.98;75.08
8318;BME280;4196;48.926;8.964;2023-03-23T11:57:47;98548.00;;;16.85;76.73
8318;BME280;4196;48.926;8.964;2023-03-23T12:00:33;98553.00;;;16.66;77.90
8318;BME280;4196;48.926;8.964;2023-03-23T12:03:46;98545.00;;;16.71;77.07
8318;BME280;4196;48.926;8.964;2023-03-23T12:26:06;98527.56;;;17.63;75.76
8318;BME280;4196;48.926;8.964;2023-03-23T12:41:17;98506.63;;;17.63;74.12
8318;BME280;4196;48.926;8.964;2023-03-23T12:44:08;98506.50;;;17.67;73.46
8318;BME280;4196;48.926;8.964;2023-03-23T12:47:21;98504.22;;;17.81;71.62
8318;BME280;4196;48.926;8.964;2023-03-23T12:50:22;98502.13;;;17.89;70.59
8318;BME280;4196;48.926;8.964;2023-03-23T12:53:29;98496.28;;;18.04;70.72
8318;BME280;4196;48.926;8.964;2023-03-23T12:56:34;98494.41;;;18.06;71.03
8318;BME280;4196;48.926;8.964;2023-03-23T12:59:29;98488.38;;;17.62;71.25
8318;BME280;4196;48.926;8.964;2023-03-23T13:02:23;98487.28;;;17.68;72.16
8318;BME280;4196;48.926;8.964;2023-03-23T13:08:14;98470.00;;;17.42;71.47
8318;BME280;4196;48.926;8.964;2023-03-23T13:11:04;98473.88;;;17.09;72.56
8318;BME280;4196;48.926;8.964;2023-03-23T13:14:06;98463.78;;;17.22;73.50
8318;BME280;4196;48.926;8.964;2023-03-23T13:17:02;98465.09;;;17.10;72.38
8318;BME280;4196;48.926;8.964;2023-03-23T13:26:40;98451.31;;;17.29;72.23
8318;BME280;4196;48.926;8.964;2023-03-23T13:29:28;98449.66;;;17.26;72.47
8318;BME280;4196;48.926;8.964;2023-03-23T13:32:18;98440.53;;;17.14;73.55
8318;BME280;4196;48.926;8.964;2023-03-23T13:35:11;98443.69;;;17.23;72.09
8318;BME280;4196;48.926;8.964;2023-03-23T13:37:57;98433.94;;;17.04;72.06
8318;BME280;4196;48.926;8.964;2023-03-23T13:40:44;98438.81;;;16.92;73.26
8318;BME280;4196;48.926;8.964;2023-03-23T13:43:33;98437.16;;;16.89;73.85
8318;BME280;4196;48.926;8.964;2023-03-23T13:52:06;98422.34;;;16.17;76.45
8318;BME280;4196;48.926;8.964;2023-03-23T13:55:12;98418.50;;;16.51;76.36
8318;BME280;4196;48.926;8.964;2023-03-23T14:01:00;98406.56;;;16.91;74.93
8318;BME280;4196;48.926;8.964;2023-03-23T14:03:49;98388.81;;;16.99;75.07
8318;BME280;4196;48.926;8.964;2023-03-23T14:06:38;98389.16;;;17.12;75.61
8318;BME280;4196;48.926;8.964;2023-03-23T14:09:40;98383.47;;;17.45;74.65
8318;BME280;4196;48.926;8.964;2023-03-23T14:12:28;98391.81;;;17.54;73.01
8318;BME280;4196;48.926;8.964;2023-03-23T14:15:14;98384.75;;;17.56;73.99
8318;BME280;4196;48.926;8.964;2023-03-23T14:18:02;98376.44;;;17.67;71.11
8318;BME280;4196;48.926;8.964;2023-03-23T14:20:48;98382.53;;;17.68;70.69
8318;BME280;4196;48.926;8.964;2023-03-23T14:23:34;98367.94;;;17.62;70.69
8318;BME280;4196;48.926;8.964;2023-03-23T14:26:20;98370.34;;;17.67;70.56
8318;BME280;4196;48.926;8.964;2023-03-23T14:29:06;98386.34;;;17.60;70.02
8318;BME280;4196;48.926;8.964;2023-03-23T14:31:56;98369.47;;;17.03;72.61
8318;BME280;4196;48.926;8.964;2023-03-23T14:34:43;98386.13;;;17.23;71.76
8318;BME280;4196;48.926;8.964;2023-03-23T14:37:29;98383.28;;;16.85;73.26
8318;BME280;4196;48.926;8.964;2023-03-23T14:40:17;98369.66;;;16.77;72.80
8318;BME280;4196;48.926;8.964;2023-03-23T14:43:03;98384.25;;;17.04;73.21
8318;BME280;4196;48.926;8.964;2023-03-23T14:45:53;98380.44;;;17.13;72.88
8318;BME280;4196;48.926;8.964;2023-03-23T14:48:39;98390.28;;;17.28;72.64
8318;BME280;4196;48.926;8.964;2023-03-23T14:51:25;98390.63;;;17.19;72.67
8318;BME280;4196;48.926;8.964;2023-03-23T14:54:11;98384.66;;;16.94;73.78
8318;BME280;4196;48.926;8.964;2023-03-23T14:57:05;98391.47;;;16.76;75.73
8318;BME280;4196;48.926;8.964;2023-03-23T14:59:55;98391.91;;;16.63;76.26
8318;BME280;4196;48.926;8.964;2023-03-23T15:02:44;98390.19;;;16.62;75.91
8318;BME280;4196;48.926;8.964;2023-03-23T15:05:33;98381.91;;;16.51;76.30
8318;BME280;4196;48.926;8.964;2023-03-23T15:08:29;98384.31;;;16.57;75.69
8318;BME280;4196;48.926;8.964;2023-03-23T15:14:24;98375.81;;;16.04;78.58
8318;BME280;4196;48.926;8.964;2023-03-23T15:17:19;98384.47;;;15.81;79.44
8318;BME280;4196;48.926;8.964;2023-03-23T15:20:43;98379.97;;;15.84;80.28
8318;BME280;4196;48.926;8.964;2023-03-23T15:23:26;98376.66;;;15.79;80.89
8318;BME280;4196;48.926;8.964;2023-03-23T15:26:41;98383.56;;;15.55;82.13
8318;BME280;4196;48.926;8.964;2023-03-23T15:29:27;98378.75;;;15.43;83.00
8318;BME280;4196;48.926;8.964;2023-03-23T15:32:12;98373.41;;;15.46;84.37
8318;BME280;4196;48.926;8.964;2023-03-23T15:35:04;98367.25;;;15.49;83.20
8318;BME280;4196;48.926;8.964;2023-03-23T15:37:58;98364.91;;;15.67;81.40
8318;BME280;4196;48.926;8.964;2023-03-23T15:40:44;98357.72;;;15.48;81.83
8318;BME280;4196;48.926;8.964;2023-03-23T15:43:32;98366.91;;;15.33;82.89
8318;BME280;4196;48.926;8.964;2023-03-23T15:46:21;98377.94;;;15.41;83.14
8318;BME280;4196;48.926;8.964;2023-03-23T15:49:08;98373.06;;;15.30;83.35
8318;BME280;4196;48.926;8.964;2023-03-23T15:51:55;98368.94;;;15.25;83.54
8318;BME280;4196;48.926;8.964;2023-03-23T15:54:48;98383.34;;;15.35;83.97
8318;BME280;4196;48.926;8.964;2023-03-23T15:57:33;98383.59;;;15.27;84.65
8318;BME280;4196;48.926;8.964;2023-03-23T16:00:21;98384.06;;;15.40;86.33
8318;BME280;4196;48.926;8.964;2023-03-23T16:03:12;98372.41;;;15.23;84.66
8318;BME280;4196;48.926;8.964;2023-03-23T16:06:02;98378.47;;;15.24;85.25
8318;BME280;4196;48.926;8.964;2023-03-23T16:08:48;98391.41;;;15.29;85.57
8318;BME280;4196;48.926;8.964;2023-03-23T16:11:40;98387.19;;;15.25;84.56
8318;BME280;4196;48.926;8.964;2023-03-23T16:14:27;98389.97;;;15.18;84.89
8318;BME280;4196;48.926;8.964;2023-03-23T16:17:19;98380.72;;;15.10;85.31
8318;BME280;4196;48.926;8.964;2023-03-23T16:20:17;98384.09;;;15.12;85.15
8318;BME280;4196;48.926;8.964;2023-03-23T16:23:04;98376.06;;;14.91;85.42
8318;BME280;4196;48.926;8.964;2023-03-23T16:25:50;98393.50;;;15.17;84.79
8318;BME280;4196;48.926;8.964;2023-03-23T16:28:37;98393.22;;;14.98;85.80
8318;BME280;4196;48.926;8.964;2023-03-23T16:31:24;98397.56;;;14.98;85.93
8318;BME280;4196;48.926;8.964;2023-03-23T16:34:10;98397.72;;;14.93;86.20
8318;BME280;4196;48.926;8.964;2023-03-23T16:36:56;98394.84;;;15.03;86.57
8318;BME280;4196;48.926;8.964;2023-03-23T16:39:43;98395.78;;;15.00;86.82
8318;BME280;4196;48.926;8.964;2023-03-23T16:42:29;98397.56;;;15.26;84.58
8318;BME280;4196;48.926;8.964;2023-03-23T16:45:16;98381.66;;;15.07;84.63
8318;BME280;4196;48.926;8.964;2023-03-23T16:48:03;98387.88;;;15.02;85.98
8318;BME280;4196;48.926;8.964;2023-03-23T16:50:51;98380.47;;;14.89;86.86
8318;BME280;4196;48.926;8.964;2023-03-23T16:53:37;98381.13;;;14.96;86.18
8318;BME280;4196;48.926;8.964;2023-03-23T16:56:24;98384.53;;;14.98;86.20
8318;BME280;4196;48.926;8.964;2023-03-23T17:03:42;98369.31;;;14.56;90.40
8318;BME280;4196;48.926;8.964;2023-03-23T17:06:29;98361.84;;;14.44;92.34